Time;durP1;ratioP1;P1;durP2;ratioP2;P2;SDS_P1;SDS_P2;PMS_P1;PMS_P2;Temp;Humidity;BMP_temperature;BMP_pressure;BME280_temperature;BME280_humidity;BME280_pressure;Samples;Min_cycle;Max_cycle;Signal;HPM_P1;HPM_P2
2022/06/18 00:01:12;;;;;;;3.72;1.77;;;17.10;85.20;;;;;;5075111;28;20062;-86
2022/06/18 00:04:08;;;;;;;3.13;1.70;;;17.00;84.60;;;;;;5075970;28;20484;-86
2022/06/18 00:06:59;;;;;;;2.25;1.60;;;17.10;85.10;;;;;;5075841;28;20107;-85
2022/06/18 00:09:57;;;;;;;4.20;1.73;;;17.20;88.90;;;;;;5070161;28;20041;-86
2022/06/18 00:15:53;;;;;;;2.55;1.77;;;17.20;90.20;;;;;;5073479;28;20148;-86
2022/06/18 00:18:43;;;;;;;3.25;2.25;;;17.00;91.20;;;;;;5070746;28;20155;-85
2022/06/18 00:21:31;;;;;;;6.43;2.35;;;16.90;92.20;;;;;;5076539;28;20052;-87
2022/06/18 00:24:20;;;;;;;2.70;1.92;;;16.90;92.20;;;;;;5081468;28;20040;-86
2022/06/18 00:27:12;;;;;;;4.80;1.90;;;16.80;95.20;;;;;;5075829;28;20048;-86
2022/06/18 00:30:01;;;;;;;5.55;2.22;;;16.70;94.60;;;;;;5076050;28;20092;-86
2022/06/18 00:32:48;;;;;;;3.55;2.00;;;16.50;98.70;;;;;;5071501;28;20048;-86
2022/06/18 00:35:35;;;;;;;3.15;2.20;;;16.50;97.20;;;;;;5076131;28;20052;-87
2022/06/18 00:38:38;;;;;;;3.45;1.95;;;16.50;98.20;;;;;;5074774;28;20049;-87
2022/06/18 00:41:26;;;;;;;4.05;2.10;;;16.40;98.40;;;;;;5067432;28;20072;-87
2022/06/18 00:44:34;;;;;;;3.20;2.00;;;16.30;99.90;;;;;;5080755;28;20441;-86
2022/06/18 00:47:44;;;;;;;4.93;2.15;;;16.20;99.90;;;;;;5077488;28;20450;-86
2022/06/18 00:50:43;;;;;;;3.08;2.40;;;16.10;99.90;;;;;;5073594;28;20085;-86
2022/06/18 00:53:59;;;;;;;2.58;2.03;;;16.00;99.90;;;;;;5074808;28;20047;-86
2022/06/18 00:57:28;;;;;;;2.33;2.13;;;16.00;99.90;;;;;;5071552;28;20096;-85
2022/06/18 01:00:25;;;;;;;4.30;2.42;;;16.20;99.90;;;;;;5064587;28;20063;-85
2022/06/18 01:03:27;;;;;;;10.07;2.60;;;16.30;99.90;;;;;;5082848;28;20077;-81
2022/06/18 01:06:31;;;;;;;5.82;2.58;;;16.40;99.90;;;;;;5092100;28;20033;-83
2022/06/18 01:09:21;;;;;;;5.05;2.10;;;16.40;99.90;;;;;;5069099;28;20066;-82
2022/06/18 01:12:10;;;;;;;2.63;2.28;;;16.30;99.90;;;;;;5098730;28;20036;-85
2022/06/18 01:15:04;;;;;;;3.00;2.20;;;16.20;99.90;;;;;;5083489;28;20103;-86
2022/06/18 01:17:53;;;;;;;4.85;2.40;;;16.20;99.90;;;;;;5081270;28;20094;-82
2022/06/18 01:20:58;;;;;;;4.60;2.30;;;16.20;99.90;;;;;;5091627;28;20051;-87
2022/06/18 01:24:11;;;;;;;4.90;2.15;;;16.20;99.90;;;;;;5070564;28;20041;-85
2022/06/18 01:26:59;;;;;;;3.85;2.20;;;16.20;99.90;;;;;;5074468;28;20118;-81
2022/06/18 01:29:46;;;;;;;3.75;2.17;;;16.20;99.90;;;;;;5079650;28;20032;-86
2022/06/18 01:32:36;;;;;;;3.65;2.15;;;16.10;99.90;;;;;;5088204;28;20136;-84
2022/06/18 01:35:25;;;;;;;3.13;1.80;;;16.10;99.90;;;;;;5094149;28;20158;-84
2022/06/18 01:38:15;;;;;;;3.03;2.10;;;16.20;99.90;;;;;;5085773;28;20045;-85
2022/06/18 01:44:45;;;;;;;3.33;1.70;;;16.50;99.90;;;;;;5089341;28;20056;-87
2022/06/18 01:47:42;;;;;;;2.07;1.87;;;16.70;99.90;;;;;;5096026;27;20059;-83
2022/06/18 01:50:45;;;;;;;3.35;1.83;;;16.80;99.90;;;;;;5089706;28;20029;-85
2022/06/18 01:53:48;;;;;;;2.33;1.80;;;16.80;99.90;;;;;;5096820;27;20115;-84
2022/06/18 01:56:40;;;;;;;2.67;1.90;;;16.80;98.80;;;;;;5083275;28;20036;-84
2022/06/18 01:59:40;;;;;;;2.17;1.80;;;16.80;98.80;;;;;;5091724;28;20065;-87
2022/06/18 02:02:27;;;;;;;2.50;2.10;;;16.80;98.90;;;;;;5104262;27;20024;-86
2022/06/18 02:05:16;;;;;;;3.22;2.38;;;16.80;98.20;;;;;;5090306;28;20033;-87
2022/06/18 02:08:07;;;;;;;2.38;1.63;;;16.80;97.80;;;;;;5096054;28;20108;-87
2022/06/18 02:11:03;;;;;;;5.43;1.80;;;16.70;97.90;;;;;;5087382;28;20462;-86
2022/06/18 02:14:03;;;;;;;3.58;2.00;;;16.60;98.00;;;;;;5065063;28;20222;-86
2022/06/18 02:16:52;;;;;;;3.15;2.13;;;16.50;98.60;;;;;;5064692;28;20488;-88
2022/06/18 02:19:40;;;;;;;2.90;2.28;;;16.40;99.90;;;;;;5088493;28;20109;-86
2022/06/18 02:22:33;;;;;;;3.90;2.45;;;16.30;99.90;;;;;;5082829;28;20056;-87
2022/06/18 02:25:24;;;;;;;2.85;2.17;;;16.30;99.90;;;;;;5074070;28;20048;-87
2022/06/18 02:28:22;;;;;;;2.45;2.25;;;16.10;99.90;;;;;;5073263;28;20044;-85
2022/06/18 02:31:19;;;;;;;5.80;2.25;;;16.00;99.90;;;;;;5062929;28;20044;-87
2022/06/18 02:34:19;;;;;;;3.65;2.17;;;15.90;99.90;;;;;;5074080;28;20044;-87
2022/06/18 02:37:19;;;;;;;4.53;2.17;;;15.80;99.90;;;;;;5077692;28;20402;-86
2022/06/18 02:40:19;;;;;;;5.97;2.30;;;15.70;99.90;;;;;;5073710;28;20097;-87
2022/06/18 02:43:07;;;;;;;3.63;2.58;;;15.70;99.90;;;;;;5067163;28;20068;-87
2022/06/18 02:45:57;;;;;;;2.60;2.20;;;15.70;99.90;;;;;;5069890;28;20164;-86
2022/06/18 02:48:49;;;;;;;2.95;2.65;;;15.60;99.90;;;;;;5056758;28;20045;-85
2022/06/18 02:51:37;;;;;;;5.93;2.53;;;15.50;99.90;;;;;;5080812;28;20124;-85
2022/06/18 02:54:24;;;;;;;2.40;2.17;;;15.50;99.90;;;;;;5073839;28;20048;-86
2022/06/18 02:57:26;;;;;;;4.07;2.50;;;15.50;99.90;;;;;;5074616;28;20393;-86
2022/06/18 03:00:16;;;;;;;3.77;2.80;;;15.60;99.90;;;;;;5064770;28;20071;-86
2022/06/18 03:03:07;;;;;;;2.85;2.33;;;15.60;99.90;;;;;;5072753;28;20052;-84
2022/06/18 03:05:57;;;;;;;3.88;2.60;;;15.50;99.90;;;;;;5089149;28;20048;-87
2022/06/18 03:08:46;;;;;;;3.33;2.58;;;15.60;99.90;;;;;;5085535;28;20048;-86
2022/06/18 03:14:45;;;;;;;5.75;3.13;;;15.60;99.90;;;;;;5070368;28;20044;-85
2022/06/18 03:17:32;;;;;;;3.10;2.53;;;15.70;99.90;;;;;;5054187;28;20055;-86
2022/06/18 03:20:27;;;;;;;7.45;2.97;;;15.70;99.90;;;;;;5072442;28;20049;-86
2022/06/18 03:23:17;;;;;;;2.90;2.60;;;15.90;99.90;;;;;;5062929;28;20091;-86
2022/06/18 03:26:07;;;;;;;2.78;2.58;;;15.90;99.90;;;;;;5072556;28;20137;-85
2022/06/18 03:28:54;;;;;;;3.60;2.80;;;16.00;99.90;;;;;;5072497;28;20052;-86
2022/06/18 03:31:44;;;;;;;4.20;2.63;;;16.10;99.90;;;;;;5071004;28;20362;-86
2022/06/18 03:34:31;;;;;;;4.22;3.00;;;16.10;99.90;;;;;;5068315;28;20044;-86
2022/06/18 03:37:19;;;;;;;4.15;2.80;;;16.10;99.90;;;;;;5073214;28;20063;-87
2022/06/18 03:40:09;;;;;;;3.13;2.83;;;16.20;99.90;;;;;;5052745;28;20067;-87
2022/06/18 03:42:57;;;;;;;3.08;2.78;;;16.30;99.90;;;;;;5071458;28;20496;-86
2022/06/18 03:45:47;;;;;;;5.55;3.20;;;16.50;99.90;;;;;;5076821;28;20048;-87
2022/06/18 03:48:58;;;;;;;5.28;2.95;;;16.50;99.90;;;;;;5063629;28;20117;-87
2022/06/18 03:51:45;;;;;;;4.07;2.50;;;16.60;99.90;;;;;;5056861;28;20051;-86
2022/06/18 03:54:32;;;;;;;3.45;2.72;;;16.60;99.90;;;;;;5071294;28;20049;-86
2022/06/18 03:57:20;;;;;;;4.20;3.13;;;16.70;99.90;;;;;;5072950;28;20064;-89
2022/06/18 04:00:15;;;;;;;5.50;2.70;;;16.70;99.90;;;;;;5065580;28;20102;-88
2022/06/18 04:03:24;;;;;;;4.10;2.47;;;16.70;99.90;;;;;;5068259;28;20064;-88
2022/06/18 04:06:15;;;;;;;5.00;2.70;;;16.70;99.90;;;;;;5053434;28;20045;-85
2022/06/18 04:09:03;;;;;;;4.82;2.97;;;16.70;99.90;;;;;;5045606;28;20152;-86
2022/06/18 04:11:50;;;;;;;7.75;2.70;;;16.80;99.90;;;;;;5060363;28;20323;-87
2022/06/18 04:14:37;;;;;;;4.40;2.72;;;16.90;99.90;;;;;;5071276;28;20497;-84
2022/06/18 04:17:24;;;;;;;4.35;2.30;;;17.00;99.90;;;;;;5058710;28;20060;-86
2022/06/18 04:20:26;;;;;;;3.63;2.70;;;17.10;99.90;;;;;;5064912;28;20062;-85
2022/06/18 04:23:15;;;;;;;6.80;3.28;;;17.20;99.40;;;;;;5074726;28;20045;-85
2022/06/18 04:26:03;;;;;;;3.50;2.40;;;17.30;99.30;;;;;;5068271;28;20469;-93
2022/06/18 04:28:51;;;;;;;3.55;2.60;;;17.40;99.40;;;;;;5061188;28;20040;-89
2022/06/18 04:31:38;;;;;;;3.83;2.80;;;17.40;99.10;;;;;;5068526;28;20091;-85
2022/06/18 04:34:27;;;;;;;3.28;2.60;;;17.50;99.00;;;;;;5073363;28;20105;-86
2022/06/18 04:37:15;;;;;;;4.63;3.22;;;17.60;98.20;;;;;;5055569;28;20096;-84
2022/06/18 04:40:07;;;;;;;3.58;2.65;;;17.60;98.20;;;;;;5060968;28;20048;-90
2022/06/18 04:42:54;;;;;;;4.20;3.13;;;17.70;97.90;;;;;;5061806;28;20106;-86
2022/06/18 04:45:41;;;;;;;3.72;2.75;;;17.70;97.80;;;;;;5076314;28;20048;-89
2022/06/18 04:48:29;;;;;;;4.10;2.72;;;17.80;97.70;;;;;;5066234;28;20064;-90
2022/06/18 04:51:16;;;;;;;3.38;2.80;;;17.80;97.10;;;;;;5083695;28;20051;-91
2022/06/18 04:54:05;;;;;;;3.38;2.78;;;17.90;97.50;;;;;;5076085;28;20041;-88
2022/06/18 04:56:52;;;;;;;5.28;2.75;;;18.00;97.30;;;;;;5082106;28;20059;-90
2022/06/18 04:59:44;;;;;;;3.20;2.75;;;18.10;96.80;;;;;;5072412;28;20044;-92
2022/06/18 05:02:31;;;;;;;4.43;3.00;;;18.20;96.20;;;;;;5063315;28;20158;-87
2022/06/18 05:05:21;;;;;;;5.40;3.20;;;18.40;96.00;;;;;;5058838;28;20068;-88
2022/06/18 05:08:08;;;;;;;7.20;3.33;;;18.40;95.80;;;;;;5059626;28;20053;-86
2022/06/18 05:10:58;;;;;;;4.25;3.03;;;18.50;95.40;;;;;;5074979;28;20064;-91
2022/06/18 05:13:47;;;;;;;6.07;2.72;;;18.50;95.20;;;;;;5077323;28;20051;-89
2022/06/18 05:16:34;;;;;;;3.67;2.97;;;18.60;95.30;;;;;;5069485;28;20060;-88
2022/06/18 05:19:24;;;;;;;6.85;3.20;;;18.70;94.80;;;;;;5076045;28;20461;-86
2022/06/18 05:22:14;;;;;;;5.78;2.95;;;18.80;94.90;;;;;;5075015;28;20048;-88
2022/06/18 05:25:01;;;;;;;7.75;3.00;;;18.90;94.80;;;;;;5061390;28;20092;-88
2022/06/18 05:27:50;;;;;;;6.45;3.95;;;19.10;94.50;;;;;;5076559;28;20117;-92
2022/06/18 05:30:38;;;;;;;4.72;3.10;;;19.10;95.40;;;;;;5078586;28;20166;-88
2022/06/18 05:33:26;;;;;;;10.20;3.00;;;19.10;95.30;;;;;;5077854;28;20044;-89
2022/06/18 05:36:19;;;;;;;3.95;2.78;;;19.20;95.20;;;;;;5060542;28;20048;-90
2022/06/18 05:39:15;;;;;;;7.53;2.90;;;19.30;95.20;;;;;;5074529;28;20047;-89
2022/06/18 05:42:05;;;;;;;2.55;2.35;;;19.40;94.80;;;;;;5070305;28;20393;-90
2022/06/18 05:44:54;;;;;;;3.17;2.40;;;19.60;94.00;;;;;;5079245;28;20050;-89
2022/06/18 05:47:42;;;;;;;6.38;2.65;;;19.70;93.80;;;;;;5079906;28;20120;-90
2022/06/18 05:50:29;;;;;;;4.63;2.72;;;19.80;94.00;;;;;;5086844;28;20040;-87
2022/06/18 05:53:16;;;;;;;7.78;2.72;;;20.00;93.50;;;;;;5083514;28;20089;-87
2022/06/18 05:56:04;;;;;;;3.28;2.60;;;20.10;93.60;;;;;;5063170;28;20132;-83
2022/06/18 05:58:57;;;;;;;5.28;2.75;;;20.30;93.30;;;;;;5059822;28;20041;-90
2022/06/18 06:01:44;;;;;;;4.85;2.55;;;20.50;92.50;;;;;;5077935;28;20045;-87
2022/06/18 06:16:53;;;;;;;6.05;2.70;;;21.40;91.00;;;;;;5065618;28;20377;-89
2022/06/18 06:19:41;;;;;;;6.82;2.25;;;21.70;90.50;;;;;;5075481;28;20044;-88
2022/06/18 06:22:28;;;;;;;3.03;2.50;;;21.90;90.10;;;;;;5065556;28;20112;-88
2022/06/18 06:25:18;;;;;;;2.85;2.20;;;22.10;83.80;;;;;;5061266;28;20056;-87
2022/06/18 06:28:09;;;;;;;3.58;2.38;;;22.20;83.80;;;;;;5077174;28;20048;-91
2022/06/18 06:30:59;;;;;;;4.03;2.22;;;22.30;81.30;;;;;;5050651;28;20036;-88
2022/06/18 06:34:25;;;;;;;2.10;1.90;;;22.60;77.30;;;;;;5067021;28;20037;-95
2022/06/18 06:37:27;;;;;;;3.15;2.05;;;22.80;73.80;;;;;;5070012;28;20063;-90
2022/06/18 06:40:37;;;;;;;2.85;2.20;;;23.00;72.50;;;;;;5085607;28;20040;-91
2022/06/18 06:43:27;;;;;;;5.15;2.45;;;23.10;71.30;;;;;;5058460;28;20139;-91
2022/06/18 06:46:17;;;;;;;4.20;2.38;;;23.30;70.60;;;;;;5078748;28;20113;-91
2022/06/18 06:49:08;;;;;;;2.20;1.80;;;23.50;71.30;;;;;;5074420;28;20072;-88
2022/06/18 06:51:58;;;;;;;2.42;2.15;;;23.80;71.00;;;;;;5062249;28;20064;-91
2022/06/18 06:57:21;;;;;;;4.05;2.28;;;24.00;69.10;;;;;;5090272;28;20131;-89
2022/06/18 06:57:55;;;;;;;2.80;2.08;;;24.00;67.70;;;;;;5077342;28;20484;-89
2022/06/18 07:00:49;;;;;;;2.42;2.00;;;24.30;67.80;;;;;;5055426;28;20389;-87
2022/06/18 07:03:38;;;;;;;3.20;2.40;;;24.50;65.20;;;;;;5090646;28;20059;-91
2022/06/18 07:06:29;;;;;;;4.85;2.03;;;24.60;66.40;;;;;;5065266;28;20053;-89
2022/06/18 07:09:16;;;;;;;6.82;2.63;;;24.70;65.90;;;;;;5074353;28;20086;-91
2022/06/18 07:12:05;;;;;;;4.72;2.13;;;25.00;64.00;;;;;;5077419;28;20045;-89
2022/06/18 07:14:52;;;;;;;2.60;1.60;;;25.40;60.40;;;;;;5057408;28;20182;-87
2022/06/18 07:17:40;;;;;;;4.82;1.98;;;25.70;60.00;;;;;;5061658;28;20076;-88
2022/06/18 07:20:31;;;;;;;2.97;1.85;;;25.90;58.60;;;;;;5062500;28;20056;-88
2022/06/18 07:23:20;;;;;;;4.53;1.90;;;25.90;60.00;;;;;;5081499;28;20064;-86
2022/06/18 07:26:12;;;;;;;7.72;2.00;;;26.30;59.70;;;;;;5073357;28;20080;-83
2022/06/18 07:29:00;;;;;;;2.83;2.20;;;26.40;56.70;;;;;;5066049;28;20041;-85
2022/06/18 07:31:50;;;;;;;4.50;2.10;;;26.40;57.90;;;;;;5060746;28;20095;-82
2022/06/18 07:34:37;;;;;;;2.83;1.90;;;26.70;55.50;;;;;;5070741;28;20328;-86
2022/06/18 07:37:25;;;;;;;4.25;1.70;;;27.00;55.10;;;;;;5059993;28;20110;-87
2022/06/18 07:40:13;;;;;;;3.67;1.80;;;27.40;53.60;;;;;;5060688;28;20088;-85
2022/06/18 07:43:01;;;;;;;2.10;1.48;;;27.50;54.10;;;;;;5068834;28;20052;-87
2022/06/18 07:45:49;;;;;;;4.45;1.75;;;27.50;51.50;;;;;;5084938;28;20049;-84
2022/06/18 07:48:39;;;;;;;3.97;1.52;;;27.70;51.90;;;;;;5079885;28;20040;-86
2022/06/18 07:51:27;;;;;;;2.47;2.00;;;27.70;51.20;;;;;;5083215;28;20129;-84
2022/06/18 07:54:16;;;;;;;2.22;1.80;;;27.80;48.50;;;;;;5068351;28;20053;-83
2022/06/18 07:57:03;;;;;;;2.47;1.50;;;27.90;49.80;;;;;;5077233;28;20045;-86
2022/06/18 07:59:50;;;;;;;1.75;1.40;;;28.30;46.60;;;;;;5077041;28;20068;-86
2022/06/18 08:02:39;;;;;;;4.50;1.42;;;28.30;46.00;;;;;;5068804;28;20032;-83
2022/06/18 08:05:27;;;;;;;2.83;1.63;;;28.50;45.40;;;;;;5071000;28;20086;-86
2022/06/18 08:08:16;;;;;;;2.28;1.40;;;28.70;46.40;;;;;;5062035;28;20060;-86
2022/06/18 08:11:21;;;;;;;2.55;1.75;;;29.10;45.30;;;;;;5073127;28;20048;-86
2022/06/18 08:14:09;;;;;;;5.30;1.40;;;29.50;43.50;;;;;;5059024;28;20036;-86
2022/06/18 08:16:57;;;;;;;1.65;1.50;;;29.60;41.80;;;;;;5046543;28;20052;-86
2022/06/18 08:19:44;;;;;;;6.30;1.60;;;30.10;40.80;;;;;;5077081;28;20560;-86
2022/06/18 08:22:33;;;;;;;1.98;1.00;;;30.40;41.50;;;;;;5073300;28;20049;-85
2022/06/18 08:25:20;;;;;;;2.22;1.58;;;30.30;40.30;;;;;;5076955;28;20055;-84
2022/06/18 08:28:09;;;;;;;3.88;1.60;;;30.40;40.00;;;;;;5076432;28;20107;-85
2022/06/18 08:30:56;;;;;;;2.30;1.35;;;30.90;40.60;;;;;;5082812;28;20036;-86
2022/06/18 08:33:46;;;;;;;3.65;1.30;;;31.00;39.50;;;;;;5083533;28;20062;-84
2022/06/18 08:36:34;;;;;;;2.38;1.27;;;31.10;39.50;;;;;;5076915;28;20040;-86
2022/06/18 08:39:21;;;;;;;1.67;1.40;;;31.50;40.60;;;;;;5064456;28;20079;-86
2022/06/18 08:42:40;;;;;;;4.57;1.40;;;32.10;38.40;;;;;;5075826;28;20045;-87
2022/06/18 08:45:56;;;;;;;4.78;1.55;;;32.10;38.40;;;;;;5073574;28;20578;-86
2022/06/18 08:49:03;;;;;;;4.75;1.23;;;31.80;39.70;;;;;;5072690;28;20090;-86
2022/06/18 08:52:30;;;;;;;2.80;1.20;;;32.20;40.70;;;;;;5078455;28;20056;-85
2022/06/18 08:55:58;;;;;;;3.05;1.42;;;32.30;37.00;;;;;;5064197;28;20048;-88
2022/06/18 08:59:01;;;;;;;1.65;1.23;;;33.20;36.30;;;;;;5058447;28;20045;-88
2022/06/18 09:02:28;;;;;;;1.92;1.20;;;33.20;39.90;;;;;;5074310;28;20131;-89
2022/06/18 09:05:40;;;;;;;2.45;1.20;;;34.30;36.70;;;;;;5074244;28;20059;-85
2022/06/18 09:08:46;;;;;;;2.40;1.35;;;34.70;32.70;;;;;;5060725;28;20045;-87
2022/06/18 09:11:43;;;;;;;1.60;1.50;;;33.90;33.20;;;;;;5057338;28;20049;-85
2022/06/18 09:15:05;;;;;;;8.23;2.22;;;33.00;34.60;;;;;;5067026;28;20098;-87
2022/06/18 09:18:01;;;;;;;2.60;1.30;;;33.10;35.00;;;;;;5073308;28;20056;-87
2022/06/18 09:20:58;;;;;;;1.23;1.10;;;33.70;33.50;;;;;;5071702;28;20357;-86
2022/06/18 09:24:06;;;;;;;3.67;1.50;;;33.60;33.10;;;;;;5090220;28;20040;-87
2022/06/18 09:27:04;;;;;;;2.33;1.13;;;33.60;36.90;;;;;;5082271;28;20060;-87
2022/06/18 09:30:05;;;;;;;3.22;1.35;;;34.00;32.80;;;;;;5093245;28;20044;-85
2022/06/18 09:33:06;;;;;;;2.22;1.30;;;33.70;33.90;;;;;;5094931;28;20074;-85
2022/06/18 09:35:55;;;;;;;2.25;1.08;;;33.90;33.90;;;;;;5092532;28;20040;-86
2022/06/18 09:38:45;;;;;;;2.85;1.35;;;34.40;35.00;;;;;;5076498;28;20044;-87
2022/06/18 09:41:47;;;;;;;3.80;1.10;;;34.90;35.80;;;;;;5078264;28;20044;-86
2022/06/18 09:44:44;;;;;;;1.67;0.77;;;35.50;32.20;;;;;;5067172;28;20146;-86
2022/06/18 09:47:53;;;;;;;3.85;0.98;;;36.10;35.30;;;;;;5070194;28;20048;-88
2022/06/18 09:50:46;;;;;;;3.40;1.00;;;36.60;33.60;;;;;;5072716;28;20044;-87
2022/06/18 09:53:40;;;;;;;3.35;1.13;;;37.00;31.80;;;;;;5074744;28;20083;-87
2022/06/18 09:56:36;;;;;;;3.58;1.08;;;36.90;29.60;;;;;;5076867;28;20147;-86
2022/06/18 09:59:54;;;;;;;1.67;1.10;;;36.70;29.80;;;;;;5065623;28;20048;-85
2022/06/18 10:03:04;;;;;;;1.50;0.70;;;35.90;30.80;;;;;;5067352;28;20048;-87
2022/06/18 10:09:02;;;;;;;0.85;0.70;;;35.90;27.30;;;;;;5069207;28;20114;-86
2022/06/18 10:11:49;;;;;;;1.58;0.80;;;35.90;27.10;;;;;;5071628;28;20040;-88
2022/06/18 10:14:37;;;;;;;0.88;0.88;;;36.50;27.60;;;;;;5086940;28;20055;-85
2022/06/18 10:17:55;;;;;;;2.65;0.70;;;36.80;30.20;;;;;;5059242;28;20049;-85
2022/06/18 10:21:20;;;;;;;4.85;1.05;;;37.60;28.50;;;;;;5080216;28;20366;-87
2022/06/18 10:24:19;;;;;;;4.90;1.13;;;37.80;25.40;;;;;;5058746;28;20531;-89
2022/06/18 10:27:55;;;;;;;2.92;0.80;;;36.90;28.90;;;;;;5057169;28;20515;-89
2022/06/18 10:31:02;;;;;;;2.92;1.00;;;37.50;27.30;;;;;;5061985;28;20059;-86
2022/06/18 10:34:03;;;;;;;1.40;0.95;;;37.20;28.20;;;;;;5062974;28;20066;-89
2022/06/18 10:37:05;;;;;;;3.97;1.25;;;37.60;27.20;;;;;;5061608;28;20139;-87
2022/06/18 10:39:59;;;;;;;;;;;37.00;27.90;;;;;;5071587;28;20094;-84
2022/06/18 10:43:12;;;;;;;3.92;1.02;;;37.10;27.60;;;;;;5075729;28;19931;-88
2022/06/18 10:46:11;;;;;;;2.40;0.90;;;37.40;26.70;;;;;;5083581;28;20389;-87
2022/06/18 10:49:04;;;;;;;2.47;1.00;;;38.20;29.30;;;;;;5045457;28;20047;-86
2022/06/18 10:51:52;;;;;;;3.35;0.82;;;38.00;28.80;;;;;;5057911;28;20044;-89
2022/06/18 10:54:42;;;;;;;1.98;0.77;;;37.30;24.80;;;;;;5073076;28;20044;-86
2022/06/18 10:57:33;;;;;;;0.98;0.80;;;37.20;27.70;;;;;;5065108;28;20048;-89
2022/06/18 11:00:28;;;;;;;1.80;0.85;;;37.00;25.30;;;;;;5055729;28;20052;-87
2022/06/18 11:03:21;;;;;;;5.50;1.13;;;37.10;28.80;;;;;;5073533;28;20067;-90
2022/06/18 11:06:14;;;;;;;1.90;0.80;;;37.90;26.80;;;;;;5057673;28;20338;-86
2022/06/18 11:09:05;;;;;;;3.70;0.82;;;38.20;26.50;;;;;;5071041;28;20473;-88
2022/06/18 11:12:01;;;;;;;3.05;0.93;;;39.10;25.80;;;;;;5076790;28;20147;-88
2022/06/18 11:14:50;;;;;;;2.72;1.20;;;39.70;26.40;;;;;;5076176;28;20060;-91
2022/06/18 11:17:44;;;;;;;3.67;0.95;;;39.90;27.10;;;;;;5062369;28;20049;-86
2022/06/18 11:20:33;;;;;;;3.25;1.25;;;40.00;27.30;;;;;;5083740;28;20041;-87
2022/06/18 11:23:22;;;;;;;2.50;1.10;;;40.00;23.70;;;;;;5075949;28;20039;-88
2022/06/18 11:26:17;;;;;;;4.10;1.40;;;39.70;26.80;;;;;;5079393;28;20052;-87
2022/06/18 11:29:35;;;;;;;5.18;1.38;;;40.20;25.20;;;;;;5073131;28;20072;-87
2022/06/18 11:32:39;;;;;;;8.80;1.75;;;38.90;26.10;;;;;;5066766;28;20049;-85
2022/06/18 11:35:30;;;;;;;7.63;1.60;;;38.70;26.50;;;;;;5055914;28;20040;-87
2022/06/18 11:38:31;;;;;;;8.88;2.60;;;39.00;26.60;;;;;;5075178;28;20106;-88
2022/06/18 11:41:33;;;;;;;5.88;2.45;;;39.90;25.50;;;;;;5045818;28;20450;-83
2022/06/18 11:44:38;;;;;;;9.88;2.83;;;38.60;26.80;;;;;;5071307;28;20048;-89
2022/06/18 11:47:35;;;;;;;8.95;2.00;;;37.20;28.20;;;;;;5060456;28;20045;-89
2022/06/18 11:50:34;;;;;;;5.50;2.00;;;37.30;27.80;;;;;;5060177;28;20355;-88
2022/06/18 11:53:33;;;;;;;6.15;2.05;;;37.20;28.60;;;;;;5073714;28;20037;-88
2022/06/18 11:56:39;;;;;;;7.05;2.08;;;37.50;28.30;;;;;;5076797;28;20052;-90
2022/06/18 11:59:44;;;;;;;14.93;3.28;;;38.30;29.70;;;;;;5077185;28;20057;-88
2022/06/18 12:02:49;;;;;;;12.27;3.30;;;37.60;27.10;;;;;;5074458;28;20045;-86
2022/06/18 12:05:48;;;;;;;12.52;3.08;;;37.50;27.90;;;;;;5073154;28;20105;-87
2022/06/18 12:08:36;;;;;;;7.28;2.20;;;38.20;29.30;;;;;;5073193;28;20044;-88
2022/06/18 12:12:09;;;;;;;12.57;2.53;;;38.30;29.40;;;;;;5062123;28;20044;-88
2022/06/18 12:15:32;;;;;;;14.02;3.30;;;38.30;27.30;;;;;;5075219;28;20056;-86
2022/06/18 12:18:25;;;;;;;10.75;2.72;;;38.10;26.50;;;;;;5075331;28;20137;-85
2022/06/18 12:21:18;;;;;;;16.98;3.08;;;38.60;30.10;;;;;;5067342;28;20045;-86
2022/06/18 12:24:24;;;;;;;7.97;2.70;;;39.30;26.00;;;;;;5078458;28;20148;-88
2022/06/18 12:27:25;;;;;;;8.68;2.72;;;38.20;27.60;;;;;;5074904;28;20052;-87
2022/06/18 12:30:29;;;;;;;10.93;2.83;;;38.30;26.60;;;;;;5073919;28;20082;-86
2022/06/18 12:33:46;;;;;;;12.85;2.80;;;38.80;26.40;;;;;;5070077;28;20049;-85
2022/06/18 12:37:02;;;;;;;6.43;2.40;;;39.10;29.30;;;;;;5077103;28;20049;-89
2022/06/18 12:40:08;;;;;;;8.98;3.03;;;39.70;26.80;;;;;;5066969;28;20045;-87
2022/06/18 12:43:06;;;;;;;10.23;2.50;;;38.40;27.20;;;;;;5083027;28;20044;-88
2022/06/18 12:45:58;;;;;;;7.75;2.50;;;38.10;26.70;;;;;;5087692;28;20361;-88
2022/06/18 12:48:57;;;;;;;8.52;2.60;;;37.40;27.40;;;;;;5069400;28;20170;-86
2022/06/18 12:51:49;;;;;;;7.63;2.28;;;37.10;28.10;;;;;;5089495;28;20049;-84
2022/06/18 12:55:05;;;;;;;7.93;2.58;;;38.20;28.30;;;;;;5075014;28;20037;-84
2022/06/18 12:58:01;;;;;;;14.02;2.42;;;38.80;26.90;;;;;;5077572;28;20048;-83
2022/06/18 13:01:07;;;;;;;10.55;2.40;;;38.00;27.40;;;;;;5074049;28;20077;-88
2022/06/18 13:04:22;;;;;;;8.38;2.67;;;38.20;28.10;;;;;;5085833;28;20427;-90
2022/06/18 13:07:30;;;;;;;12.32;2.65;;;38.60;26.50;;;;;;5059881;28;20070;-89
2022/06/18 13:10:31;;;;;;;13.57;2.80;;;38.40;27.50;;;;;;5075184;28;20045;-87
2022/06/18 13:13:38;;;;;;;12.27;2.80;;;38.10;27.30;;;;;;5069207;28;20096;-88
2022/06/18 13:16:54;;;;;;;10.60;2.58;;;37.50;27.50;;;;;;5073083;28;20048;-89
2022/06/18 13:19:56;;;;;;;10.30;3.13;;;37.30;28.30;;;;;;5060952;28;20129;-87
2022/06/18 13:22:44;;;;;;;11.18;3.13;;;37.30;28.30;;;;;;5070988;28;20041;-90
2022/06/18 13:29:01;;;;;;;12.68;3.10;;;37.30;27.80;;;;;;5074508;28;20059;-89
2022/06/18 13:31:51;;;;;;;;;;;36.80;28.10;;;;;;5048802;28;20416;-90
2022/06/18 13:34:59;;;;;;;14.90;3.00;;;37.00;28.70;;;;;;5056890;28;19920;-88
2022/06/18 13:38:14;;;;;;;10.50;2.95;;;37.50;28.20;;;;;;5069620;28;20051;-91
2022/06/18 13:41:09;;;;;;;13.20;3.08;;;37.80;28.00;;;;;;5070861;28;20041;-85
2022/06/18 13:44:18;;;;;;;16.27;3.13;;;37.60;28.10;;;;;;5070639;28;20052;-87
2022/06/18 13:47:11;;;;;;;13.70;3.15;;;38.00;27.90;;;;;;5071877;28;20045;-88
2022/06/18 13:49:58;;;;;;;14.48;2.85;;;37.90;28.30;;;;;;5066453;28;20460;-89
2022/06/18 13:52:49;;;;;;;11.18;2.75;;;38.20;29.00;;;;;;5068155;28;20045;-87
2022/06/18 13:55:42;;;;;;;9.30;3.08;;;38.30;27.40;;;;;;5073011;28;20037;-88
2022/06/18 13:58:31;;;;;;;8.73;2.92;;;38.00;28.50;;;;;;5058542;28;20060;-88
2022/06/18 14:01:22;;;;;;;12.40;2.85;;;38.70;29.00;;;;;;5058735;28;20374;-90
2022/06/18 14:04:25;;;;;;;11.77;2.92;;;39.40;28.20;;;;;;5070943;28;20040;-90
2022/06/18 14:07:24;;;;;;;9.75;2.60;;;40.30;28.10;;;;;;5069458;28;20044;-87
2022/06/18 14:10:23;;;;;;;13.52;3.03;;;40.20;27.20;;;;;;5064537;28;20449;-90
2022/06/18 14:13:15;;;;;;;17.73;3.03;;;39.80;26.10;;;;;;5068945;28;20048;-88
2022/06/18 14:16:04;;;;;;;14.82;2.75;;;39.20;27.50;;;;;;5057889;28;20040;-89
2022/06/18 14:19:06;;;;;;;11.45;3.47;;;39.40;28.10;;;;;;5076510;28;20079;-88
2022/06/18 14:22:04;;;;;;;12.05;3.25;;;39.90;27.90;;;;;;5079232;28;20053;-89
2022/06/18 14:25:00;;;;;;;15.73;3.13;;;40.40;26.90;;;;;;5081748;28;20102;-91
2022/06/18 14:27:48;;;;;;;10.77;3.05;;;39.00;26.60;;;;;;5060421;28;20049;-89
2022/06/18 14:30:41;;;;;;;18.15;3.42;;;38.80;27.90;;;;;;5075402;28;20045;-89
2022/06/18 14:33:43;;;;;;;18.25;3.60;;;38.70;28.50;;;;;;5064876;28;20052;-89
2022/06/18 14:36:38;;;;;;;18.60;3.67;;;38.90;26.60;;;;;;5071118;28;20169;-90
2022/06/18 14:39:30;;;;;;;13.23;2.75;;;39.50;26.50;;;;;;5069437;28;20074;-90
2022/06/18 14:42:21;;;;;;;17.67;3.58;;;40.00;25.90;;;;;;5071118;28;20346;-87
2022/06/18 14:45:37;;;;;;;19.63;4.15;;;39.90;26.70;;;;;;5071381;28;20068;-87
2022/06/18 14:48:51;;;;;;;21.05;3.20;;;39.60;27.00;;;;;;5067623;28;20449;-87
2022/06/18 14:51:50;;;;;;;20.45;3.85;;;39.10;27.40;;;;;;5057500;28;20047;-90
2022/06/18 14:54:59;;;;;;;22.52;3.75;;;39.30;25.60;;;;;;5067194;28;20051;-87
2022/06/18 14:57:58;;;;;;;16.17;3.63;;;39.10;27.00;;;;;;5070910;28;20041;-86
2022/06/18 15:01:10;;;;;;;20.45;4.25;;;38.60;26.80;;;;;;5058409;28;20067;-85
2022/06/18 15:04:18;;;;;;;21.70;4.05;;;38.80;26.30;;;;;;5077507;28;20040;-88
2022/06/18 15:07:12;;;;;;;20.77;4.00;;;38.10;25.70;;;;;;5071468;28;20048;-89
2022/06/18 15:10:20;;;;;;;21.90;4.63;;;37.70;25.40;;;;;;5067156;28;20036;-89
2022/06/18 15:13:09;;;;;;;21.33;3.75;;;37.50;26.70;;;;;;5075323;28;20040;-89
2022/06/18 15:21:56;;;;;;;29.52;4.78;;;36.10;26.40;;;;;;5063005;28;20131;-87
2022/06/18 15:27:33;;;;;;;13.75;3.40;;;35.70;27.80;;;;;;5073813;28;20092;-88
2022/06/18 15:30:41;;;;;;;26.13;3.30;;;36.10;27.40;;;;;;5061142;28;20040;-88
2022/06/18 15:33:31;;;;;;;20.20;3.97;;;35.90;28.20;;;;;;5071461;28;20056;-89
2022/06/18 15:36:58;;;;;;;21.17;4.15;;;36.10;28.70;;;;;;5076176;28;20041;-88
2022/06/18 15:40:02;;;;;;;20.75;4.45;;;35.80;28.50;;;;;;5068358;28;20044;-91
2022/06/18 15:42:49;;;;;;;19.85;4.30;;;35.50;28.30;;;;;;5074094;28;20113;-89
2022/06/18 15:45:47;;;;;;;19.03;4.47;;;35.40;28.10;;;;;;5067508;28;20055;-90
2022/06/18 15:48:39;;;;;;;20.52;4.40;;;34.70;27.60;;;;;;5070553;28;20354;-89
2022/06/18 15:51:32;;;;;;;20.15;4.88;;;34.30;27.70;;;;;;5067271;28;20037;-88